sensor_id;sensor_type;location;lat;lon;timestamp;P1;durP1;ratioP1;P2;durP2;ratioP2
19113;SDS011;9689;51.052;13.772;2023-06-22T00:02:34;18.30;;;8.95;;
19113;SDS011;9689;51.052;13.772;2023-06-22T00:07:35;18.42;;;8.70;;
19113;SDS011;9689;51.052;13.772;2023-06-22T00:12:37;15.10;;;8.80;;
19113;SDS011;9689;51.052;13.772;2023-06-22T00:17:38;15.75;;;9.23;;
19113;SDS011;9689;51.052;13.772;2023-06-22T00:22:39;16.38;;;9.07;;
19113;SDS011;9689;51.052;13.772;2023-06-22T00:27:41;13.07;;;8.48;;
19113;SDS011;9689;51.052;13.772;2023-06-22T00:32:42;14.82;;;8.98;;
19113;SDS011;9689;51.052;13.772;2023-06-22T00:37:43;17.33;;;9.48;;
19113;SDS011;9689;51.052;13.772;2023-06-22T00:42:45;15.82;;;8.50;;
19113;SDS011;9689;51.052;13.772;2023-06-22T00:47:46;13.25;;;8.18;;
19113;SDS011;9689;51.052;13.772;2023-06-22T00:52:47;11.95;;;8.23;;
19113;SDS011;9689;51.052;13.772;2023-06-22T00:57:52;13.77;;;8.48;;
19113;SDS011;9689;51.052;13.772;2023-06-22T01:02:55;13.63;;;8.50;;
19113;SDS011;9689;51.052;13.772;2023-06-22T01:08:00;15.23;;;8.77;;
19113;SDS011;9689;51.052;13.772;2023-06-22T01:13:09;15.13;;;9.15;;
19113;SDS011;9689;51.052;13.772;2023-06-22T01:18:17;14.35;;;8.23;;
19113;SDS011;9689;51.052;13.772;2023-06-22T01:23:21;11.70;;;8.85;;
19113;SDS011;9689;51.052;13.772;2023-06-22T01:28:34;11.23;;;8.10;;
19113;SDS011;9689;51.052;13.772;2023-06-22T01:33:44;12.52;;;8.32;;
19113;SDS011;9689;51.052;13.772;2023-06-22T01:38:47;12.38;;;8.20;;
19113;SDS011;9689;51.052;13.772;2023-06-22T01:43:52;14.27;;;8.63;;
19113;SDS011;9689;51.052;13.772;2023-06-22T01:48:53;11.68;;;7.95;;
19113;SDS011;9689;51.052;13.772;2023-06-22T01:53:55;11.30;;;8.20;;
19113;SDS011;9689;51.052;13.772;2023-06-22T01:59:04;13.70;;;8.60;;
19113;SDS011;9689;51.052;13.772;2023-06-22T02:04:11;10.85;;;8.32;;
19113;SDS011;9689;51.052;13.772;2023-06-22T02:09:14;12.40;;;7.70;;
19113;SDS011;9689;51.052;13.772;2023-06-22T02:14:18;12.38;;;8.38;;
19113;SDS011;9689;51.052;13.772;2023-06-22T02:19:22;12.77;;;8.13;;
19113;SDS011;9689;51.052;13.772;2023-06-22T02:24:24;11.50;;;8.73;;
19113;SDS011;9689;51.052;13.772;2023-06-22T02:29:27;12.73;;;8.73;;
19113;SDS011;9689;51.052;13.772;2023-06-22T02:34:28;12.95;;;8.88;;
19113;SDS011;9689;51.052;13.772;2023-06-22T02:39:29;13.75;;;8.80;;
19113;SDS011;9689;51.052;13.772;2023-06-22T02:44:31;12.75;;;8.23;;
19113;SDS011;9689;51.052;13.772;2023-06-22T02:49:32;13.55;;;8.00;;
19113;SDS011;9689;51.052;13.772;2023-06-22T02:54:32;12.07;;;8.40;;
19113;SDS011;9689;51.052;13.772;2023-06-22T02:59:35;16.13;;;8.57;;
19113;SDS011;9689;51.052;13.772;2023-06-22T03:04:42;12.57;;;8.80;;
19113;SDS011;9689;51.052;13.772;2023-06-22T03:09:43;11.20;;;8.82;;
19113;SDS011;9689;51.052;13.772;2023-06-22T03:14:45;12.60;;;8.75;;
19113;SDS011;9689;51.052;13.772;2023-06-22T03:19:47;17.75;;;8.63;;
19113;SDS011;9689;51.052;13.772;2023-06-22T03:24:47;15.68;;;8.77;;
19113;SDS011;9689;51.052;13.772;2023-06-22T03:29:49;16.02;;;8.75;;
19113;SDS011;9689;51.052;13.772;2023-06-22T03:34:50;14.68;;;9.05;;
19113;SDS011;9689;51.052;13.772;2023-06-22T03:39:51;18.58;;;9.52;;
19113;SDS011;9689;51.052;13.772;2023-06-22T03:44:54;14.30;;;9.00;;
19113;SDS011;9689;51.052;13.772;2023-06-22T03:49:54;14.45;;;8.13;;
19113;SDS011;9689;51.052;13.772;2023-06-22T03:54:55;16.60;;;8.85;;
19113;SDS011;9689;51.052;13.772;2023-06-22T03:59:57;11.38;;;8.32;;
19113;SDS011;9689;51.052;13.772;2023-06-22T04:04:58;14.95;;;8.40;;
19113;SDS011;9689;51.052;13.772;2023-06-22T04:10:03;11.82;;;8.65;;
19113;SDS011;9689;51.052;13.772;2023-06-22T04:15:06;14.70;;;8.38;;
19113;SDS011;9689;51.052;13.772;2023-06-22T04:20:07;11.63;;;7.78;;
19113;SDS011;9689;51.052;13.772;2023-06-22T04:25:09;10.77;;;8.00;;
19113;SDS011;9689;51.052;13.772;2023-06-22T04:30:11;16.25;;;8.60;;
19113;SDS011;9689;51.052;13.772;2023-06-22T04:35:15;11.23;;;8.23;;
19113;SDS011;9689;51.052;13.772;2023-06-22T04:40:16;12.48;;;8.93;;
19113;SDS011;9689;51.052;13.772;2023-06-22T04:45:18;12.95;;;8.13;;
19113;SDS011;9689;51.052;13.772;2023-06-22T04:50:19;11.18;;;8.20;;
19113;SDS011;9689;51.052;13.772;2023-06-22T04:55:21;12.20;;;7.95;;
19113;SDS011;9689;51.052;13.772;2023-06-22T05:00:23;12.25;;;7.95;;
19113;SDS011;9689;51.052;13.772;2023-06-22T05:05:24;10.80;;;7.93;;
19113;SDS011;9689;51.052;13.772;2023-06-22T05:10:25;11.88;;;7.63;;
19113;SDS011;9689;51.052;13.772;2023-06-22T05:15:27;12.95;;;8.98;;
19113;SDS011;9689;51.052;13.772;2023-06-22T05:20:29;15.98;;;8.80;;
19113;SDS011;9689;51.052;13.772;2023-06-22T05:25:30;15.35;;;7.88;;
19113;SDS011;9689;51.052;13.772;2023-06-22T05:30:33;12.95;;;8.20;;
19113;SDS011;9689;51.052;13.772;2023-06-22T05:35:34;14.88;;;8.30;;
19113;SDS011;9689;51.052;13.772;2023-06-22T05:40:34;14.90;;;9.10;;
19113;SDS011;9689;51.052;13.772;2023-06-22T05:45:36;15.05;;;7.90;;
19113;SDS011;9689;51.052;13.772;2023-06-22T05:50:37;15.75;;;8.68;;
19113;SDS011;9689;51.052;13.772;2023-06-22T05:55:38;14.98;;;8.55;;
19113;SDS011;9689;51.052;13.772;2023-06-22T06:00:41;11.13;;;7.50;;
19113;SDS011;9689;51.052;13.772;2023-06-22T06:05:47;10.10;;;7.25;;
19113;SDS011;9689;51.052;13.772;2023-06-22T06:10:48;13.02;;;8.10;;
19113;SDS011;9689;51.052;13.772;2023-06-22T06:15:50;11.18;;;8.18;;
19113;SDS011;9689;51.052;13.772;2023-06-22T06:20:54;12.43;;;7.88;;
19113;SDS011;9689;51.052;13.772;2023-06-22T06:25:54;12.05;;;8.02;;
19113;SDS011;9689;51.052;13.772;2023-06-22T06:30:56;14.13;;;7.00;;
19113;SDS011;9689;51.052;13.772;2023-06-22T06:35:57;26.65;;;7.95;;
19113;SDS011;9689;51.052;13.772;2023-06-22T06:41:01;15.05;;;7.47;;
19113;SDS011;9689;51.052;13.772;2023-06-22T06:46:03;13.85;;;7.60;;
19113;SDS011;9689;51.052;13.772;2023-06-22T06:51:04;14.82;;;7.63;;
19113;SDS011;9689;51.052;13.772;2023-06-22T06:56:04;12.05;;;7.10;;
19113;SDS011;9689;51.052;13.772;2023-06-22T07:01:07;11.70;;;7.38;;
19113;SDS011;9689;51.052;13.772;2023-06-22T07:06:08;10.55;;;7.65;;
19113;SDS011;9689;51.052;13.772;2023-06-22T07:11:08;10.52;;;7.97;;
19113;SDS011;9689;51.052;13.772;2023-06-22T07:16:10;13.65;;;8.05;;
19113;SDS011;9689;51.052;13.772;2023-06-22T07:21:11;13.38;;;7.88;;
19113;SDS011;9689;51.052;13.772;2023-06-22T07:26:12;11.32;;;8.20;;
19113;SDS011;9689;51.052;13.772;2023-06-22T07:31:14;13.27;;;7.80;;
19113;SDS011;9689;51.052;13.772;2023-06-22T07:36:16;10.02;;;7.32;;
19113;SDS011;9689;51.052;13.772;2023-06-22T07:41:16;12.45;;;8.32;;
19113;SDS011;9689;51.052;13.772;2023-06-22T07:46:20;9.80;;;7.32;;
19113;SDS011;9689;51.052;13.772;2023-06-22T07:51:21;12.50;;;7.80;;
19113;SDS011;9689;51.052;13.772;2023-06-22T07:56:21;9.48;;;8.05;;
19113;SDS011;9689;51.052;13.772;2023-06-22T08:01:23;10.70;;;7.40;;
19113;SDS011;9689;51.052;13.772;2023-06-22T08:06:24;9.15;;;6.90;;
19113;SDS011;9689;51.052;13.772;2023-06-22T08:11:25;9.43;;;7.38;;
19113;SDS011;9689;51.052;13.772;2023-06-22T08:16:27;13.32;;;7.35;;
19113;SDS011;9689;51.052;13.772;2023-06-22T08:21:28;9.13;;;7.60;;
19113;SDS011;9689;51.052;13.772;2023-06-22T08:26:29;10.43;;;6.90;;
19113;SDS011;9689;51.052;13.772;2023-06-22T08:31:31;9.80;;;6.22;;
19113;SDS011;9689;51.052;13.772;2023-06-22T08:36:33;8.35;;;6.28;;
19113;SDS011;9689;51.052;13.772;2023-06-22T08:41:36;8.98;;;6.03;;
19113;SDS011;9689;51.052;13.772;2023-06-22T08:46:39;8.88;;;6.45;;
19113;SDS011;9689;51.052;13.772;2023-06-22T08:51:40;8.95;;;6.25;;
19113;SDS011;9689;51.052;13.772;2023-06-22T08:56:40;7.28;;;5.75;;
19113;SDS011;9689;51.052;13.772;2023-06-22T09:01:44;9.48;;;5.60;;
19113;SDS011;9689;51.052;13.772;2023-06-22T09:06:47;9.25;;;5.85;;
19113;SDS011;9689;51.052;13.772;2023-06-22T09:11:49;9.77;;;6.57;;
19113;SDS011;9689;51.052;13.772;2023-06-22T09:16:51;10.05;;;5.97;;
19113;SDS011;9689;51.052;13.772;2023-06-22T09:21:52;7.65;;;5.57;;
19113;SDS011;9689;51.052;13.772;2023-06-22T09:26:53;10.27;;;5.78;;
19113;SDS011;9689;51.052;13.772;2023-06-22T09:31:55;9.30;;;6.05;;
19113;SDS011;9689;51.052;13.772;2023-06-22T09:36:56;9.02;;;6.18;;
19113;SDS011;9689;51.052;13.772;2023-06-22T09:41:57;8.20;;;6.07;;
19113;SDS011;9689;51.052;13.772;2023-06-22T09:47:00;9.82;;;6.43;;
19113;SDS011;9689;51.052;13.772;2023-06-22T09:52:01;7.65;;;5.75;;
19113;SDS011;9689;51.052;13.772;2023-06-22T09:57:02;6.55;;;5.50;;
19113;SDS011;9689;51.052;13.772;2023-06-22T10:02:04;8.82;;;5.88;;
19113;SDS011;9689;51.052;13.772;2023-06-22T10:07:06;7.78;;;5.95;;
19113;SDS011;9689;51.052;13.772;2023-06-22T10:12:07;9.77;;;5.68;;
19113;SDS011;9689;51.052;13.772;2023-06-22T10:17:09;8.88;;;5.95;;
19113;SDS011;9689;51.052;13.772;2023-06-22T10:22:10;6.80;;;5.93;;
19113;SDS011;9689;51.052;13.772;2023-06-22T10:27:15;11.00;;;6.00;;
19113;SDS011;9689;51.052;13.772;2023-06-22T10:32:17;7.30;;;6.45;;
19113;SDS011;9689;51.052;13.772;2023-06-22T10:37:18;9.50;;;6.50;;
19113;SDS011;9689;51.052;13.772;2023-06-22T10:42:19;8.40;;;6.32;;
19113;SDS011;9689;51.052;13.772;2023-06-22T10:47:21;10.15;;;6.32;;
19113;SDS011;9689;51.052;13.772;2023-06-22T10:52:22;12.23;;;6.97;;
19113;SDS011;9689;51.052;13.772;2023-06-22T10:57:22;7.50;;;6.15;;
19113;SDS011;9689;51.052;13.772;2023-06-22T11:02:24;9.15;;;6.35;;
19113;SDS011;9689;51.052;13.772;2023-06-22T11:07:27;16.25;;;6.63;;
19113;SDS011;9689;51.052;13.772;2023-06-22T11:12:30;15.75;;;6.22;;
19113;SDS011;9689;51.052;13.772;2023-06-22T11:17:33;12.85;;;6.57;;
19113;SDS011;9689;51.052;13.772;2023-06-22T11:22:35;11.05;;;6.57;;
19113;SDS011;9689;51.052;13.772;2023-06-22T11:27:35;8.77;;;6.72;;
19113;SDS011;9689;51.052;13.772;2023-06-22T11:32:37;13.27;;;6.20;;
19113;SDS011;9689;51.052;13.772;2023-06-22T11:37:38;8.45;;;6.40;;
19113;SDS011;9689;51.052;13.772;2023-06-22T11:42:41;8.20;;;6.18;;
19113;SDS011;9689;51.052;13.772;2023-06-22T11:47:43;11.30;;;7.15;;
19113;SDS011;9689;51.052;13.772;2023-06-22T11:52:44;7.80;;;6.47;;
19113;SDS011;9689;51.052;13.772;2023-06-22T11:57:54;13.43;;;6.55;;
19113;SDS011;9689;51.052;13.772;2023-06-22T12:02:59;8.57;;;6.75;;
19113;SDS011;9689;51.052;13.772;2023-06-22T12:08:00;11.45;;;6.68;;
19113;SDS011;9689;51.052;13.772;2023-06-22T12:13:01;8.98;;;6.25;;
19113;SDS011;9689;51.052;13.772;2023-06-22T12:18:03;13.93;;;7.30;;
19113;SDS011;9689;51.052;13.772;2023-06-22T12:23:04;8.77;;;6.50;;
19113;SDS011;9689;51.052;13.772;2023-06-22T12:28:05;7.85;;;6.22;;
19113;SDS011;9689;51.052;13.772;2023-06-22T12:33:07;10.38;;;6.70;;
19113;SDS011;9689;51.052;13.772;2023-06-22T12:38:08;7.55;;;6.43;;
19113;SDS011;9689;51.052;13.772;2023-06-22T12:43:08;7.47;;;5.78;;
19113;SDS011;9689;51.052;13.772;2023-06-22T12:48:10;10.23;;;6.18;;
19113;SDS011;9689;51.052;13.772;2023-06-22T12:53:12;12.65;;;6.22;;
19113;SDS011;9689;51.052;13.772;2023-06-22T12:58:13;7.63;;;6.07;;
19113;SDS011;9689;51.052;13.772;2023-06-22T13:03:15;11.15;;;6.72;;
19113;SDS011;9689;51.052;13.772;2023-06-22T13:08:16;9.48;;;6.60;;
19113;SDS011;9689;51.052;13.772;2023-06-22T13:13:16;12.25;;;6.80;;
19113;SDS011;9689;51.052;13.772;2023-06-22T13:18:18;10.00;;;6.63;;
19113;SDS011;9689;51.052;13.772;2023-06-22T13:23:19;12.02;;;5.75;;
19113;SDS011;9689;51.052;13.772;2023-06-22T13:28:20;7.68;;;5.88;;
19113;SDS011;9689;51.052;13.772;2023-06-22T13:33:28;9.00;;;6.82;;
19113;SDS011;9689;51.052;13.772;2023-06-22T13:38:29;8.45;;;6.28;;
19113;SDS011;9689;51.052;13.772;2023-06-22T13:43:31;7.95;;;6.93;;
19113;SDS011;9689;51.052;13.772;2023-06-22T13:48:34;9.43;;;6.90;;
19113;SDS011;9689;51.052;13.772;2023-06-22T13:53:34;9.73;;;6.63;;
19113;SDS011;9689;51.052;13.772;2023-06-22T13:58:35;7.50;;;6.35;;
19113;SDS011;9689;51.052;13.772;2023-06-22T14:03:38;8.75;;;6.47;;
19113;SDS011;9689;51.052;13.772;2023-06-22T14:08:38;8.68;;;6.88;;
19113;SDS011;9689;51.052;13.772;2023-06-22T14:13:40;9.80;;;6.45;;
19113;SDS011;9689;51.052;13.772;2023-06-22T14:18:44;9.05;;;6.32;;
19113;SDS011;9689;51.052;13.772;2023-06-22T14:23:45;7.65;;;6.43;;
19113;SDS011;9689;51.052;13.772;2023-06-22T14:28:49;11.02;;;6.63;;
19113;SDS011;9689;51.052;13.772;2023-06-22T14:33:51;10.40;;;6.32;;
19113;SDS011;9689;51.052;13.772;2023-06-22T14:38:52;8.65;;;6.63;;
19113;SDS011;9689;51.052;13.772;2023-06-22T14:43:53;9.55;;;6.63;;
19113;SDS011;9689;51.052;13.772;2023-06-22T14:48:55;8.52;;;6.18;;
19113;SDS011;9689;51.052;13.772;2023-06-22T14:53:55;7.82;;;6.30;;
19113;SDS011;9689;51.052;13.772;2023-06-22T14:58:56;9.70;;;6.20;;
19113;SDS011;9689;51.052;13.772;2023-06-22T15:03:58;11.48;;;6.78;;
19113;SDS011;9689;51.052;13.772;2023-06-22T15:08:59;9.52;;;6.82;;
19113;SDS011;9689;51.052;13.772;2023-06-22T15:13:59;10.70;;;6.53;;
19113;SDS011;9689;51.052;13.772;2023-06-22T15:19:01;8.60;;;6.60;;
19113;SDS011;9689;51.052;13.772;2023-06-22T15:24:02;11.50;;;6.63;;
19113;SDS011;9689;51.052;13.772;2023-06-22T15:29:03;8.52;;;6.78;;
19113;SDS011;9689;51.052;13.772;2023-06-22T15:34:05;9.25;;;6.03;;
19113;SDS011;9689;51.052;13.772;2023-06-22T15:39:06;11.75;;;6.30;;
19113;SDS011;9689;51.052;13.772;2023-06-22T15:44:06;7.78;;;6.47;;
19113;SDS011;9689;51.052;13.772;2023-06-22T15:49:09;9.10;;;6.05;;
19113;SDS011;9689;51.052;13.772;2023-06-22T15:54:09;11.88;;;6.72;;
19113;SDS011;9689;51.052;13.772;2023-06-22T15:59:11;8.82;;;6.90;;
19113;SDS011;9689;51.052;13.772;2023-06-22T16:04:13;10.25;;;7.32;;
19113;SDS011;9689;51.052;13.772;2023-06-22T16:09:13;10.60;;;7.15;;
19113;SDS011;9689;51.052;13.772;2023-06-22T16:14:14;11.32;;;7.30;;
19113;SDS011;9689;51.052;13.772;2023-06-22T16:19:16;7.85;;;6.68;;
19113;SDS011;9689;51.052;13.772;2023-06-22T16:24:17;8.60;;;6.82;;
19113;SDS011;9689;51.052;13.772;2023-06-22T16:29:18;9.45;;;7.03;;
19113;SDS011;9689;51.052;13.772;2023-06-22T16:34:20;9.50;;;7.50;;
19113;SDS011;9689;51.052;13.772;2023-06-22T16:39:20;11.30;;;7.53;;
19113;SDS011;9689;51.052;13.772;2023-06-22T16:44:21;11.60;;;7.93;;
19113;SDS011;9689;51.052;13.772;2023-06-22T16:49:23;12.38;;;8.07;;
19113;SDS011;9689;51.052;13.772;2023-06-22T16:54:24;12.30;;;7.32;;
19113;SDS011;9689;51.052;13.772;2023-06-22T16:59:25;8.90;;;6.95;;
19113;SDS011;9689;51.052;13.772;2023-06-22T17:04:27;12.27;;;7.68;;
19113;SDS011;9689;51.052;13.772;2023-06-22T17:09:30;8.57;;;7.10;;
19113;SDS011;9689;51.052;13.772;2023-06-22T17:14:32;11.82;;;7.22;;
19113;SDS011;9689;51.052;13.772;2023-06-22T17:19:34;10.48;;;7.65;;
19113;SDS011;9689;51.052;13.772;2023-06-22T17:24:35;10.60;;;6.82;;
19113;SDS011;9689;51.052;13.772;2023-06-22T17:29:36;14.45;;;7.20;;
19113;SDS011;9689;51.052;13.772;2023-06-22T17:34:38;11.30;;;7.10;;
19113;SDS011;9689;51.052;13.772;2023-06-22T17:39:39;9.95;;;7.25;;
19113;SDS011;9689;51.052;13.772;2023-06-22T17:44:41;11.55;;;7.97;;
19113;SDS011;9689;51.052;13.772;2023-06-22T17:49:43;12.15;;;8.10;;
19113;SDS011;9689;51.052;13.772;2023-06-22T17:54:44;13.80;;;7.45;;
19113;SDS011;9689;51.052;13.772;2023-06-22T17:59:49;11.20;;;7.85;;
19113;SDS011;9689;51.052;13.772;2023-06-22T18:04:52;13.57;;;8.35;;
19113;SDS011;9689;51.052;13.772;2023-06-22T18:09:58;12.55;;;8.15;;
19113;SDS011;9689;51.052;13.772;2023-06-22T18:15:00;13.02;;;8.48;;
19113;SDS011;9689;51.052;13.772;2023-06-22T18:20:02;18.27;;;9.30;;
19113;SDS011;9689;51.052;13.772;2023-06-22T18:25:10;11.70;;;8.05;;
19113;SDS011;9689;51.052;13.772;2023-06-22T18:30:11;14.82;;;8.90;;
19113;SDS011;9689;51.052;13.772;2023-06-22T18:35:13;13.93;;;9.20;;
19113;SDS011;9689;51.052;13.772;2023-06-22T18:40:14;11.18;;;8.75;;
19113;SDS011;9689;51.052;13.772;2023-06-22T18:45:23;15.10;;;9.35;;
19113;SDS011;9689;51.052;13.772;2023-06-22T18:50:35;11.88;;;9.38;;
19113;SDS011;9689;51.052;13.772;2023-06-22T18:55:40;13.10;;;10.18;;
19113;SDS011;9689;51.052;13.772;2023-06-22T19:00:41;13.82;;;9.75;;
19113;SDS011;9689;51.052;13.772;2023-06-22T19:05:43;12.98;;;9.73;;
19113;SDS011;9689;51.052;13.772;2023-06-22T19:10:44;14.48;;;9.98;;
19113;SDS011;9689;51.052;13.772;2023-06-22T19:15:46;15.05;;;9.43;;
19113;SDS011;9689;51.052;13.772;2023-06-22T19:20:51;15.32;;;9.85;;
19113;SDS011;9689;51.052;13.772;2023-06-22T19:25:52;17.88;;;9.68;;
19113;SDS011;9689;51.052;13.772;2023-06-22T19:30:57;12.00;;;9.68;;
19113;SDS011;9689;51.052;13.772;2023-06-22T19:36:02;14.88;;;9.80;;
19113;SDS011;9689;51.052;13.772;2023-06-22T19:41:06;16.60;;;9.25;;
19113;SDS011;9689;51.052;13.772;2023-06-22T19:46:06;15.60;;;9.82;;
19113;SDS011;9689;51.052;13.772;2023-06-22T19:51:09;13.82;;;9.85;;
19113;SDS011;9689;51.052;13.772;2023-06-22T19:56:10;13.95;;;9.50;;
19113;SDS011;9689;51.052;13.772;2023-06-22T20:01:11;18.40;;;9.63;;
19113;SDS011;9689;51.052;13.772;2023-06-22T20:06:14;13.68;;;10.15;;
19113;SDS011;9689;51.052;13.772;2023-06-22T20:11:22;15.98;;;9.85;;
19113;SDS011;9689;51.052;13.772;2023-06-22T20:16:24;15.45;;;9.68;;
19113;SDS011;9689;51.052;13.772;2023-06-22T20:21:26;14.07;;;10.20;;
19113;SDS011;9689;51.052;13.772;2023-06-22T20:26:27;16.08;;;10.23;;
19113;SDS011;9689;51.052;13.772;2023-06-22T20:31:29;12.60;;;9.45;;
19113;SDS011;9689;51.052;13.772;2023-06-22T20:36:31;17.58;;;10.27;;
19113;SDS011;9689;51.052;13.772;2023-06-22T20:41:32;14.10;;;9.98;;
19113;SDS011;9689;51.052;13.772;2023-06-22T20:46:32;13.48;;;9.52;;
19113;SDS011;9689;51.052;13.772;2023-06-22T20:51:35;12.68;;;8.98;;
19113;SDS011;9689;51.052;13.772;2023-06-22T20:56:35;17.65;;;10.30;;
19113;SDS011;9689;51.052;13.772;2023-06-22T21:01:36;12.20;;;9.32;;
19113;SDS011;9689;51.052;13.772;2023-06-22T21:06:38;13.57;;;9.73;;
19113;SDS011;9689;51.052;13.772;2023-06-22T21:11:39;11.50;;;9.18;;
19113;SDS011;9689;51.052;13.772;2023-06-22T21:16:41;13.70;;;9.55;;
19113;SDS011;9689;51.052;13.772;2023-06-22T21:21:43;11.32;;;9.02;;
19113;SDS011;9689;51.052;13.772;2023-06-22T21:26:44;13.32;;;9.52;;
19113;SDS011;9689;51.052;13.772;2023-06-22T21:31:44;15.88;;;10.07;;
19113;SDS011;9689;51.052;13.772;2023-06-22T21:36:46;11.95;;;9.07;;
19113;SDS011;9689;51.052;13.772;2023-06-22T21:41:47;11.07;;;9.30;;
19113;SDS011;9689;51.052;13.772;2023-06-22T21:46:48;14.48;;;10.55;;
19113;SDS011;9689;51.052;13.772;2023-06-22T21:51:50;19.77;;;12.00;;
19113;SDS011;9689;51.052;13.772;2023-06-22T21:56:51;18.08;;;11.73;;
19113;SDS011;9689;51.052;13.772;2023-06-22T22:01:51;26.20;;;13.77;;
19113;SDS011;9689;51.052;13.772;2023-06-22T22:06:55;20.05;;;12.88;;
19113;SDS011;9689;51.052;13.772;2023-06-22T22:11:55;19.40;;;13.18;;
19113;SDS011;9689;51.052;13.772;2023-06-22T22:16:56;26.88;;;12.98;;
19113;SDS011;9689;51.052;13.772;2023-06-22T22:22:00;19.25;;;13.73;;
19113;SDS011;9689;51.052;13.772;2023-06-22T22:27:01;22.85;;;14.55;;
19113;SDS011;9689;51.052;13.772;2023-06-22T22:32:02;26.52;;;15.75;;
19113;SDS011;9689;51.052;13.772;2023-06-22T22:37:04;25.10;;;15.95;;
19113;SDS011;9689;51.052;13.772;2023-06-22T22:42:06;25.63;;;17.08;;
19113;SDS011;9689;51.052;13.772;2023-06-22T22:47:07;25.35;;;16.73;;
19113;SDS011;9689;51.052;13.772;2023-06-22T22:52:09;28.55;;;18.10;;
19113;SDS011;9689;51.052;13.772;2023-06-22T22:57:09;26.95;;;17.98;;
19113;SDS011;9689;51.052;13.772;2023-06-22T23:02:10;23.67;;;17.20;;
19113;SDS011;9689;51.052;13.772;2023-06-22T23:07:12;22.10;;;13.15;;
19113;SDS011;9689;51.052;13.772;2023-06-22T23:12:13;12.38;;;8.20;;
19113;SDS011;9689;51.052;13.772;2023-06-22T23:17:13;25.02;;;8.95;;
19113;SDS011;9689;51.052;13.772;2023-06-22T23:22:17;15.57;;;2.72;;
19113;SDS011;9689;51.052;13.772;2023-06-22T23:27:18;4.82;;;2.20;;
19113;SDS011;9689;51.052;13.772;2023-06-22T23:32:18;7.95;;;2.40;;
19113;SDS011;9689;51.052;13.772;2023-06-22T23:37:20;6.63;;;2.22;;
19113;SDS011;9689;51.052;13.772;2023-06-22T23:42:23;4.07;;;1.70;;
19113;SDS011;9689;51.052;13.772;2023-06-22T23:47:24;2.83;;;1.30;;
19113;SDS011;9689;51.052;13.772;2023-06-22T23:52:27;2.90;;;1.20;;
19113;SDS011;9689;51.052;13.772;2023-06-22T23:57:28;2.90;;;1.20;;
